Sign in

Advertising

Info

Aviation weather - KDAB

METAR KDAB 040053Z 07004KT 10SM FEW040 18/13 A3014 RMK AO2 SLP206 T01780133

TAF KDAB 032324Z 0400/0424 06005KT P6SM FEW035 SCT250 FM041400 09009KT P6SM SCT035 FM041800 13011KT P6SM SCT040 BKN250

Aviation weather from ADDS. Re-check weather before flight.

-